createdAt,value
2022-12-23T00:02:13.053Z,1.99
2022-12-23T00:04:56.144Z,2.06
2022-12-23T00:07:39.324Z,1.94
2022-12-23T00:10:22.459Z,1.79
2022-12-23T00:13:23.157Z,1.94
2022-12-23T00:16:09.407Z,1.93
2022-12-23T00:18:53.858Z,2.04
2022-12-23T00:21:36.983Z,2.15
2022-12-23T00:24:20.040Z,2.20
2022-12-23T00:27:03.088Z,2.09
2022-12-23T00:29:46.061Z,2.00
2022-12-23T00:32:30.514Z,2.01
2022-12-23T00:35:13.490Z,1.71
2022-12-23T00:37:56.450Z,1.83
2022-12-23T00:40:56.896Z,1.97
2022-12-23T00:43:39.879Z,2.00
2022-12-23T00:46:23.786Z,1.96
2022-12-23T00:49:26.012Z,1.95
2022-12-23T00:52:11.116Z,2.03
2022-12-23T00:54:54.089Z,1.95
2022-12-23T00:57:37.088Z,2.03
2022-12-23T01:00:20.729Z,2.07
2022-12-23T01:03:32.642Z,2.08
2022-12-23T01:06:17.639Z,2.08
2022-12-23T01:09:00.629Z,2.16
2022-12-23T01:11:43.998Z,2.14
2022-12-23T01:14:27.508Z,2.16
2022-12-23T01:17:10.638Z,2.19
2022-12-23T01:19:53.772Z,2.23
2022-12-23T01:22:38.216Z,2.16
2022-12-23T01:25:21.311Z,2.16
2022-12-23T01:28:04.353Z,2.15
2022-12-23T01:30:47.388Z,2.15
2022-12-23T01:33:30.753Z,2.13
2022-12-23T01:36:13.804Z,2.25
2022-12-23T01:38:58.476Z,2.26
2022-12-23T01:41:59.256Z,2.31
2022-12-23T01:45:03.720Z,2.42
2022-12-23T01:47:51.092Z,2.41
2022-12-23T01:50:39.152Z,2.47
2022-12-23T01:53:25.621Z,2.71
2022-12-23T01:56:15.690Z,2.78
2022-12-23T01:59:01.906Z,2.68
2022-12-23T02:02:02.557Z,2.69
2022-12-23T02:04:45.777Z,2.72
2022-12-23T02:07:47.027Z,2.53
2022-12-23T02:10:37.456Z,2.64
2022-12-23T02:13:29.247Z,2.56
2022-12-23T02:16:19.740Z,2.62
2022-12-23T02:19:13.618Z,2.50
2022-12-23T02:22:19.842Z,2.59
2022-12-23T02:25:27.647Z,2.49
2022-12-23T02:28:37.245Z,2.53
2022-12-23T02:31:30.583Z,2.63
2022-12-23T02:34:20.226Z,2.79
2022-12-23T02:37:10.252Z,2.80
2022-12-23T02:39:59.852Z,2.89
2022-12-23T02:42:47.989Z,2.96
2022-12-23T02:45:38.929Z,2.88
2022-12-23T02:48:30.425Z,2.80
2022-12-23T02:51:16.142Z,2.68
2022-12-23T02:54:04.016Z,2.58
2022-12-23T02:56:50.485Z,2.34
2022-12-23T02:59:41.581Z,2.39
2022-12-23T03:02:24.802Z,2.45
2022-12-23T03:05:28.354Z,2.29
2022-12-23T03:08:24.088Z,2.28
2022-12-23T03:11:09.950Z,2.26
2022-12-23T03:14:21.969Z,2.34
2022-12-23T03:17:19.309Z,2.14
2022-12-23T03:20:09.528Z,2.24
2022-12-23T03:23:02.405Z,2.42
2022-12-23T03:25:54.902Z,2.51
2022-12-23T03:28:43.801Z,2.53
2022-12-23T03:31:30.326Z,2.62
2022-12-23T03:34:17.733Z,2.41
2022-12-23T03:37:07.256Z,2.32
2022-12-23T03:39:58.024Z,2.22
2022-12-23T03:42:44.535Z,2.16
2022-12-23T03:45:40.696Z,2.07
2022-12-23T03:48:29.038Z,2.14
2022-12-23T03:51:16.854Z,2.23
2022-12-23T03:54:02.798Z,2.20
2022-12-23T03:56:51.951Z,2.12
2022-12-23T03:59:38.234Z,2.28
2022-12-23T04:02:27.725Z,2.30
2022-12-23T04:05:21.502Z,2.25
2022-12-23T04:08:13.124Z,2.28
2022-12-23T04:10:56.338Z,2.32
2022-12-23T04:13:40.847Z,2.33
2022-12-23T04:16:25.231Z,2.31
2022-12-23T04:19:08.755Z,2.13
2022-12-23T04:21:51.892Z,2.10
2022-12-23T04:24:35.139Z,2.09
2022-12-23T04:27:18.389Z,2.14
2022-12-23T04:30:02.877Z,2.09
2022-12-23T04:32:46.144Z,2.14
2022-12-23T04:35:29.250Z,2.28
2022-12-23T04:38:12.269Z,2.26
2022-12-23T04:40:55.281Z,2.44
2022-12-23T04:43:38.320Z,2.55
2022-12-23T04:46:22.879Z,2.66
2022-12-23T04:49:06.026Z,2.61
2022-12-23T04:51:49.108Z,2.55
2022-12-23T04:54:32.156Z,2.40
2022-12-23T04:57:15.444Z,2.35
2022-12-23T04:59:58.515Z,2.43
2022-12-23T05:02:43.019Z,2.52
2022-12-23T05:05:26.225Z,2.64
2022-12-23T05:08:09.357Z,2.74
2022-12-23T05:10:52.592Z,2.79
2022-12-23T05:13:35.614Z,2.88
2022-12-23T05:16:18.913Z,2.92
2022-12-23T05:19:03.431Z,3.01
2022-12-23T05:21:46.784Z,3.13
2022-12-23T05:24:29.868Z,3.17
2022-12-23T05:27:12.920Z,3.24
2022-12-23T05:29:56.338Z,3.27
2022-12-23T05:32:40.173Z,3.27
2022-12-23T05:35:25.850Z,3.25
2022-12-23T05:38:09.103Z,3.29
2022-12-23T05:40:52.204Z,3.18
2022-12-23T05:43:35.446Z,3.26
2022-12-23T05:46:24.267Z,3.39
2022-12-23T05:49:09.423Z,3.00
2022-12-23T05:51:54.249Z,3.16
2022-12-23T05:54:37.330Z,2.93
2022-12-23T05:57:20.532Z,2.84
2022-12-23T06:00:04.500Z,2.91
2022-12-23T06:02:53.595Z,3.02
2022-12-23T06:05:38.949Z,2.98
2022-12-23T06:08:23.669Z,2.97
2022-12-23T06:11:07.453Z,2.89
2022-12-23T06:13:50.512Z,2.91
2022-12-23T06:16:33.649Z,3.07
2022-12-23T06:19:16.761Z,3.13
2022-12-23T06:22:00.039Z,3.19
2022-12-23T06:24:45.184Z,3.32
2022-12-23T06:27:28.293Z,3.39
2022-12-23T06:30:12.193Z,3.33
2022-12-23T06:32:55.205Z,3.24
2022-12-23T06:35:38.221Z,3.42
2022-12-23T06:38:21.322Z,3.56
2022-12-23T06:41:06.045Z,3.73
2022-12-23T06:43:54.164Z,3.82
2022-12-23T06:46:37.497Z,3.60
2022-12-23T06:49:20.550Z,3.61
2022-12-23T06:52:03.601Z,3.67
2022-12-23T06:54:46.701Z,3.79
2022-12-23T06:57:31.181Z,3.88
2022-12-23T07:00:15.592Z,3.93
2022-12-23T07:02:58.881Z,3.85
2022-12-23T07:05:41.979Z,3.98
2022-12-23T07:08:25.060Z,4.04
2022-12-23T07:11:08.691Z,3.99
2022-12-23T07:13:53.138Z,3.96
2022-12-23T07:16:36.237Z,3.98
2022-12-23T07:19:19.733Z,4.00
2022-12-23T07:22:03.379Z,3.91
2022-12-23T07:24:47.940Z,3.84
2022-12-23T07:27:31.111Z,4.08
2022-12-23T07:30:16.150Z,4.21
2022-12-23T07:32:59.217Z,4.34
2022-12-23T07:35:42.823Z,4.60
2022-12-23T07:38:25.956Z,4.56
2022-12-23T07:41:09.059Z,4.58
2022-12-23T07:43:53.454Z,4.54
2022-12-23T07:46:38.461Z,4.72
2022-12-23T07:49:21.618Z,4.87
2022-12-23T07:52:04.999Z,5.07
2022-12-23T07:54:47.962Z,5.06
2022-12-23T07:57:31.047Z,5.09
2022-12-23T08:00:15.293Z,5.19
2022-12-23T08:03:00.059Z,5.38
2022-12-23T08:05:43.269Z,5.76
2022-12-23T08:08:26.815Z,6.17
2022-12-23T08:11:11.857Z,7.90
2022-12-23T08:13:54.944Z,13.67
2022-12-23T08:16:43.329Z,17.80
2022-12-23T08:19:28.541Z,22.10
2022-12-23T08:22:11.678Z,24.37
2022-12-23T08:24:54.706Z,27.30
2022-12-23T08:27:38.798Z,28.89
2022-12-23T08:30:21.899Z,27.62
2022-12-23T08:33:05.473Z,27.85
2022-12-23T08:35:50.031Z,29.67
2022-12-23T08:38:33.505Z,30.66
2022-12-23T08:41:19.173Z,31.89
2022-12-23T08:44:02.488Z,32.61
2022-12-23T08:46:46.189Z,33.66
2022-12-23T08:49:29.477Z,35.51
2022-12-23T08:52:14.011Z,36.36
2022-12-23T08:54:57.129Z,36.42
2022-12-23T08:57:40.220Z,37.42
2022-12-23T09:00:23.721Z,36.48
2022-12-23T09:03:07.666Z,36.44
2022-12-23T09:05:50.768Z,35.73
2022-12-23T09:08:36.735Z,33.20
2022-12-23T09:11:22.360Z,29.15
2022-12-23T09:14:07.049Z,25.90
2022-12-23T09:16:52.644Z,23.96
2022-12-23T09:19:35.724Z,22.46
2022-12-23T09:22:18.809Z,20.77
2022-12-23T09:25:05.384Z,20.39
2022-12-23T09:27:48.730Z,19.13
2022-12-23T09:30:31.837Z,17.81
2022-12-23T09:33:15.018Z,16.46
2022-12-23T09:36:00.923Z,15.23
2022-12-23T09:38:44.164Z,14.53
2022-12-23T09:41:54.418Z,14.72
2022-12-23T09:44:56.441Z,15.97
2022-12-23T09:47:41.388Z,16.98
2022-12-23T09:50:28.816Z,17.46
2022-12-23T09:53:15.880Z,15.99
2022-12-23T09:56:03.509Z,17.35
2022-12-23T09:58:55.472Z,17.99
2022-12-23T10:01:45.867Z,19.76
2022-12-23T10:04:40.800Z,19.82
2022-12-23T10:07:31.876Z,19.65
2022-12-23T10:10:19.312Z,24.08
2022-12-23T10:13:06.170Z,28.51
2022-12-23T10:15:53.191Z,30.08
2022-12-23T10:18:45.159Z,27.48
2022-12-23T10:21:33.489Z,22.97
2022-12-23T10:24:22.248Z,22.01
2022-12-23T10:27:19.396Z,25.13
2022-12-23T10:30:33.788Z,25.47
2022-12-23T10:33:23.179Z,25.29
2022-12-23T10:36:13.525Z,21.89
2022-12-23T10:39:03.957Z,18.83
2022-12-23T10:41:57.075Z,17.27
2022-12-23T10:45:00.742Z,17.21
2022-12-23T10:47:53.603Z,17.17
2022-12-23T10:50:51.294Z,14.90
2022-12-23T10:53:40.805Z,14.19
2022-12-23T10:56:24.752Z,16.19
2022-12-23T10:59:13.411Z,20.05
2022-12-23T11:02:03.016Z,21.36
2022-12-23T11:04:50.311Z,20.18
2022-12-23T11:07:45.192Z,21.45
2022-12-23T11:10:34.258Z,21.76
2022-12-23T11:13:26.991Z,19.00
2022-12-23T11:16:19.104Z,17.12
2022-12-23T11:19:05.912Z,15.54
2022-12-23T11:21:56.386Z,15.21
2022-12-23T11:24:43.300Z,15.14
2022-12-23T11:27:26.823Z,14.71
2022-12-23T11:30:20.272Z,14.03
2022-12-23T11:33:03.789Z,14.13
2022-12-23T11:35:47.275Z,13.85
2022-12-23T11:38:32.107Z,13.16
2022-12-23T11:41:21.375Z,12.41
2022-12-23T11:44:07.888Z,12.53
2022-12-23T11:46:52.032Z,12.19
2022-12-23T11:49:35.880Z,12.77
2022-12-23T11:52:21.709Z,12.43
2022-12-23T11:55:07.124Z,12.45
2022-12-23T11:57:53.058Z,12.67
2022-12-23T12:00:42.256Z,12.83
2022-12-23T12:03:29.796Z,12.62
2022-12-23T12:06:16.614Z,11.93
2022-12-23T12:09:03.164Z,12.32
2022-12-23T12:11:49.868Z,12.31
2022-12-23T12:14:42.120Z,11.85
2022-12-23T12:17:32.615Z,11.87
2022-12-23T12:20:26.705Z,12.08
2022-12-23T12:23:16.130Z,11.64
2022-12-23T12:26:03.388Z,11.51
2022-12-23T12:28:49.026Z,11.31
2022-12-23T12:31:38.784Z,11.52
2022-12-23T12:34:35.235Z,11.44
2022-12-23T12:37:27.202Z,11.42
2022-12-23T12:40:24.290Z,11.32
2022-12-23T12:43:20.060Z,11.37
2022-12-23T12:46:13.038Z,11.17
2022-12-23T12:49:05.104Z,11.24
2022-12-23T12:51:53.280Z,11.40
2022-12-23T12:54:44.276Z,11.39
2022-12-23T12:57:28.144Z,11.53
2022-12-23T13:00:17.661Z,11.63
2022-12-23T13:03:16.884Z,11.02
2022-12-23T13:06:22.078Z,10.98
2022-12-23T13:09:15.786Z,11.24
2022-12-23T13:12:06.903Z,11.25
2022-12-23T13:15:02.565Z,11.46
2022-12-23T13:17:52.318Z,11.65
2022-12-23T13:20:44.592Z,11.66
2022-12-23T13:23:44.811Z,11.66
2022-12-23T13:26:37.270Z,11.39
2022-12-23T13:29:42.266Z,11.15
2022-12-23T13:32:39.445Z,10.74
2022-12-23T13:35:35.806Z,10.49
2022-12-23T13:38:42.342Z,10.28
2022-12-23T13:41:33.792Z,10.21
2022-12-23T13:44:18.961Z,10.14
2022-12-23T13:47:14.523Z,10.10
2022-12-23T13:50:05.029Z,10.05
2022-12-23T13:53:08.856Z,9.89
2022-12-23T13:56:12.873Z,9.82
2022-12-23T13:58:56.378Z,9.77
2022-12-23T14:01:47.219Z,9.68
2022-12-23T14:04:37.618Z,9.61
2022-12-23T14:07:23.354Z,9.46
2022-12-23T14:10:13.840Z,9.34
2022-12-23T14:13:04.249Z,9.19
2022-12-23T14:16:03.646Z,9.13
2022-12-23T14:19:12.601Z,9.02
2022-12-23T14:22:08.780Z,8.96
2022-12-23T14:25:48.181Z,8.86
2022-12-23T14:29:04.293Z,8.80
2022-12-23T14:31:56.101Z,8.75
2022-12-23T14:34:39.321Z,8.73
2022-12-23T14:37:36.008Z,8.81
2022-12-23T14:40:58.156Z,8.96
2022-12-23T14:44:02.839Z,9.01
2022-12-23T14:46:57.445Z,9.09
2022-12-23T14:49:44.177Z,9.20
2022-12-23T14:53:00.894Z,9.13
2022-12-23T14:55:48.359Z,9.21
2022-12-23T14:59:01.118Z,9.22
2022-12-23T15:01:50.081Z,9.26
2022-12-23T15:04:48.010Z,9.15
2022-12-23T15:07:35.235Z,9.15
2022-12-23T15:10:21.861Z,9.15
2022-12-23T15:13:06.321Z,9.01
2022-12-23T15:16:00.669Z,8.98
2022-12-23T15:18:55.371Z,8.92
2022-12-23T15:21:38.481Z,8.74
2022-12-23T15:24:23.386Z,8.64
2022-12-23T15:27:26.422Z,8.50
2022-12-23T15:30:14.224Z,8.55
2022-12-23T15:33:00.614Z,8.65
2022-12-23T15:35:46.022Z,8.61
2022-12-23T15:38:32.805Z,8.31
2022-12-23T15:41:18.825Z,8.42
2022-12-23T15:44:02.144Z,8.42
2022-12-23T15:46:45.578Z,8.28
2022-12-23T15:49:31.314Z,8.35
2022-12-23T15:52:20.498Z,8.43
2022-12-23T15:55:14.868Z,8.40
2022-12-23T15:58:00.718Z,8.30
2022-12-23T16:00:54.376Z,8.21
2022-12-23T16:03:40.829Z,7.99
2022-12-23T16:06:26.900Z,8.12
2022-12-23T16:09:32.177Z,8.16
2022-12-23T16:12:24.344Z,8.02
2022-12-23T16:15:22.999Z,8.12
2022-12-23T16:18:20.910Z,8.13
2022-12-23T16:21:06.901Z,8.06
2022-12-23T16:23:54.217Z,7.93
2022-12-23T16:26:43.529Z,7.69
2022-12-23T16:29:26.676Z,7.66
2022-12-23T16:32:18.567Z,7.61
2022-12-23T16:35:11.399Z,7.55
2022-12-23T16:37:59.356Z,7.43
2022-12-23T16:40:42.875Z,7.38
2022-12-23T16:43:27.386Z,7.20
2022-12-23T16:46:17.634Z,7.10
2022-12-23T16:49:04.978Z,7.15
2022-12-23T16:51:48.683Z,7.01
2022-12-23T16:54:32.043Z,6.91
2022-12-23T16:57:15.105Z,6.94
2022-12-23T16:59:59.691Z,6.83
2022-12-23T17:02:43.359Z,6.74
2022-12-23T17:05:26.487Z,6.70
2022-12-23T17:08:09.749Z,6.72
2022-12-23T17:10:53.389Z,6.60
2022-12-23T17:13:36.413Z,6.42
2022-12-23T17:16:25.528Z,6.40
2022-12-23T17:19:08.697Z,6.40
2022-12-23T17:21:58.514Z,6.37
2022-12-23T17:24:41.817Z,6.21
2022-12-23T17:27:25.367Z,5.99
2022-12-23T17:30:14.815Z,5.76
2022-12-23T17:33:01.465Z,5.63
2022-12-23T17:35:44.641Z,5.59
2022-12-23T17:38:29.144Z,5.49
2022-12-23T17:41:20.741Z,5.40
2022-12-23T17:44:03.882Z,5.38
2022-12-23T17:46:47.890Z,5.18
2022-12-23T17:49:32.391Z,5.19
2022-12-23T17:52:17.742Z,5.18
2022-12-23T17:55:00.908Z,5.22
2022-12-23T17:57:45.144Z,5.19
2022-12-23T18:00:34.159Z,5.14
2022-12-23T18:03:23.683Z,5.16
2022-12-23T18:06:12.888Z,5.10
2022-12-23T18:08:57.040Z,5.07
2022-12-23T18:11:43.486Z,5.08
2022-12-23T18:14:28.530Z,4.99
2022-12-23T18:17:16.568Z,4.95
2022-12-23T18:20:00.125Z,4.78
2022-12-23T18:22:45.185Z,4.80
2022-12-23T18:25:28.562Z,4.85
2022-12-23T18:28:12.357Z,4.88
2022-12-23T18:30:58.312Z,4.90
2022-12-23T18:33:41.904Z,4.83
2022-12-23T18:36:27.854Z,4.73
2022-12-23T18:39:12.641Z,4.72
2022-12-23T18:41:56.357Z,4.67
2022-12-23T18:44:39.432Z,4.69
2022-12-23T18:47:22.511Z,4.65
2022-12-23T18:50:06.208Z,4.65
2022-12-23T18:52:49.417Z,4.66
2022-12-23T18:55:34.753Z,4.68
2022-12-23T18:58:19.114Z,4.64
2022-12-23T19:01:02.289Z,4.65
2022-12-23T19:03:46.352Z,4.60
2022-12-23T19:06:29.672Z,4.60
2022-12-23T19:09:17.577Z,4.61
2022-12-23T19:12:02.005Z,4.63
2022-12-23T19:14:46.417Z,4.60
2022-12-23T19:17:29.700Z,4.57
2022-12-23T19:20:15.217Z,4.54
2022-12-23T19:22:58.384Z,4.49
2022-12-23T19:25:42.016Z,4.50
2022-12-23T19:28:27.234Z,4.44
2022-12-23T19:31:11.092Z,4.46
2022-12-23T19:33:54.291Z,4.42
2022-12-23T19:36:37.716Z,4.40
2022-12-23T19:39:22.094Z,4.41
2022-12-23T19:42:05.161Z,4.36
2022-12-23T19:44:49.600Z,4.36
2022-12-23T19:47:32.695Z,4.42
2022-12-23T19:50:15.784Z,4.46
2022-12-23T19:52:58.947Z,4.37
2022-12-23T19:55:41.990Z,4.44
2022-12-23T19:58:25.196Z,4.34
2022-12-23T20:01:13.146Z,4.36
2022-12-23T20:03:57.260Z,4.36
2022-12-23T20:06:43.444Z,4.38
2022-12-23T20:09:27.308Z,4.32
2022-12-23T20:12:12.096Z,4.29
2022-12-23T20:14:55.941Z,4.32
2022-12-23T20:17:40.816Z,4.32
2022-12-23T20:20:24.401Z,4.30
2022-12-23T20:23:07.866Z,4.22
2022-12-23T20:25:51.482Z,4.01
2022-12-23T20:28:35.072Z,3.83
2022-12-23T20:31:20.192Z,3.79
2022-12-23T20:34:06.227Z,3.89
2022-12-23T20:36:49.518Z,3.74
2022-12-23T20:39:32.808Z,3.64
2022-12-23T20:42:16.043Z,3.31
2022-12-23T20:44:59.437Z,3.21
2022-12-23T20:47:42.506Z,3.11
2022-12-23T20:50:26.971Z,3.03
2022-12-23T20:53:10.634Z,3.00
2022-12-23T20:55:53.675Z,2.93
2022-12-23T20:59:00.393Z,2.96
2022-12-23T21:01:43.951Z,2.79
2022-12-23T21:04:27.202Z,2.75
2022-12-23T21:07:11.932Z,2.87
2022-12-23T21:09:54.981Z,2.91
2022-12-23T21:12:38.203Z,2.90
2022-12-23T21:15:22.997Z,2.94
2022-12-23T21:18:06.351Z,2.97
2022-12-23T21:20:49.473Z,3.00
2022-12-23T21:23:37.343Z,2.98
2022-12-23T21:26:23.097Z,3.02
2022-12-23T21:29:07.952Z,3.06
2022-12-23T21:31:51.011Z,3.19
2022-12-23T21:34:34.147Z,3.23
2022-12-23T21:37:17.252Z,3.19
2022-12-23T21:40:01.867Z,3.26
2022-12-23T21:42:44.819Z,3.22
2022-12-23T21:45:27.843Z,3.18
2022-12-23T21:48:10.929Z,3.11
2022-12-23T21:50:54.756Z,3.10
2022-12-23T21:53:38.137Z,3.17
2022-12-23T21:56:25.559Z,3.15
2022-12-23T21:59:11.520Z,3.06
2022-12-23T22:01:54.696Z,3.17
2022-12-23T22:04:37.905Z,3.15
2022-12-23T22:07:20.892Z,3.21
2022-12-23T22:10:03.981Z,3.13
2022-12-23T22:12:48.434Z,3.10
2022-12-23T22:15:31.442Z,3.11
2022-12-23T22:18:14.454Z,3.14
2022-12-23T22:20:57.498Z,3.09
2022-12-23T22:23:40.899Z,3.13
2022-12-23T22:26:26.473Z,3.12
2022-12-23T22:29:12.851Z,3.16
2022-12-23T22:31:55.927Z,3.14
2022-12-23T22:34:39.062Z,3.09
2022-12-23T22:37:22.142Z,3.08
2022-12-23T22:40:06.113Z,2.96
2022-12-23T22:42:49.152Z,2.97
2022-12-23T22:45:33.805Z,2.95
2022-12-23T22:48:17.199Z,2.95
2022-12-23T22:51:04.141Z,2.99
2022-12-23T22:53:47.849Z,2.80
2022-12-23T22:56:31.002Z,2.94
2022-12-23T22:59:21.343Z,2.91
2022-12-23T23:02:05.865Z,2.98
2022-12-23T23:04:49.199Z,2.85
2022-12-23T23:07:32.256Z,2.90
2022-12-23T23:10:16.051Z,2.85
2022-12-23T23:12:59.045Z,2.88
2022-12-23T23:15:42.124Z,2.79
2022-12-23T23:18:27.599Z,2.80
2022-12-23T23:21:12.786Z,2.79
2022-12-23T23:23:55.904Z,2.74
2022-12-23T23:26:38.973Z,2.83
2022-12-23T23:29:21.993Z,2.75
2022-12-23T23:32:06.261Z,2.72
2022-12-23T23:34:50.695Z,2.70
2022-12-23T23:37:33.713Z,2.62
2022-12-23T23:40:17.086Z,2.63
2022-12-23T23:43:00.471Z,2.60
2022-12-23T23:45:43.619Z,2.63
2022-12-23T23:48:26.703Z,2.56
2022-12-23T23:51:12.541Z,2.50
2022-12-23T23:53:55.716Z,2.51
2022-12-23T23:56:39.578Z,2.55
2022-12-23T23:59:22.825Z,2.47
